sensor_id;sensor_type;location;lat;lon;timestamp;P1;durP1;ratioP1;P2;durP2;ratioP2
20229;SDS011;12195;55.790;37.572;2024-03-02T00:00:35;34.65;;;16.65;;
20229;SDS011;12195;55.790;37.572;2024-03-02T00:03:09;40.28;;;18.85;;
20229;SDS011;12195;55.790;37.572;2024-03-02T00:05:48;38.23;;;17.67;;
20229;SDS011;12195;55.790;37.572;2024-03-02T00:08:26;36.10;;;17.77;;
20229;SDS011;12195;55.790;37.572;2024-03-02T00:10:59;35.68;;;18.55;;
20229;SDS011;12195;55.790;37.572;2024-03-02T00:13:34;44.67;;;20.00;;
20229;SDS011;12195;55.790;37.572;2024-03-02T00:18:39;33.98;;;18.23;;
20229;SDS011;12195;55.790;37.572;2024-03-02T00:21:13;40.88;;;18.52;;
20229;SDS011;12195;55.790;37.572;2024-03-02T00:23:48;36.03;;;18.90;;
20229;SDS011;12195;55.790;37.572;2024-03-02T00:26:22;35.40;;;18.57;;
20229;SDS011;12195;55.790;37.572;2024-03-02T00:28:55;36.68;;;18.90;;
20229;SDS011;12195;55.790;37.572;2024-03-02T00:31:28;39.78;;;19.17;;
20229;SDS011;12195;55.790;37.572;2024-03-02T00:34:01;40.73;;;19.20;;
20229;SDS011;12195;55.790;37.572;2024-03-02T00:36:36;48.13;;;20.43;;
20229;SDS011;12195;55.790;37.572;2024-03-02T00:39:11;45.33;;;20.62;;
20229;SDS011;12195;55.790;37.572;2024-03-02T00:41:44;41.13;;;20.40;;
20229;SDS011;12195;55.790;37.572;2024-03-02T00:44:18;45.23;;;20.63;;
20229;SDS011;12195;55.790;37.572;2024-03-02T00:46:52;45.33;;;20.12;;
20229;SDS011;12195;55.790;37.572;2024-03-02T00:49:25;43.80;;;20.57;;
20229;SDS011;12195;55.790;37.572;2024-03-02T00:51:59;38.35;;;20.68;;
20229;SDS011;12195;55.790;37.572;2024-03-02T00:54:32;44.65;;;21.82;;
20229;SDS011;12195;55.790;37.572;2024-03-02T00:57:05;53.05;;;22.55;;
20229;SDS011;12195;55.790;37.572;2024-03-02T00:59:39;44.18;;;19.90;;
20229;SDS011;12195;55.790;37.572;2024-03-02T01:02:11;55.20;;;27.48;;
20229;SDS011;12195;55.790;37.572;2024-03-02T01:04:43;47.70;;;22.58;;
20229;SDS011;12195;55.790;37.572;2024-03-02T01:07:16;43.35;;;20.35;;
20229;SDS011;12195;55.790;37.572;2024-03-02T01:09:48;47.50;;;23.90;;
20229;SDS011;12195;55.790;37.572;2024-03-02T01:12:21;48.08;;;20.97;;
20229;SDS011;12195;55.790;37.572;2024-03-02T01:14:53;41.15;;;20.48;;
20229;SDS011;12195;55.790;37.572;2024-03-02T01:17:27;59.88;;;25.52;;
20229;SDS011;12195;55.790;37.572;2024-03-02T01:19:59;40.75;;;19.20;;
20229;SDS011;12195;55.790;37.572;2024-03-02T01:22:32;43.60;;;21.48;;
20229;SDS011;12195;55.790;37.572;2024-03-02T01:25:05;43.75;;;20.60;;
20229;SDS011;12195;55.790;37.572;2024-03-02T01:27:39;52.83;;;23.90;;
20229;SDS011;12195;55.790;37.572;2024-03-02T01:30:11;40.63;;;20.62;;
20229;SDS011;12195;55.790;37.572;2024-03-02T01:32:44;47.35;;;20.70;;
20229;SDS011;12195;55.790;37.572;2024-03-02T01:35:17;43.13;;;21.25;;
20229;SDS011;12195;55.790;37.572;2024-03-02T01:37:50;43.63;;;20.17;;
20229;SDS011;12195;55.790;37.572;2024-03-02T01:40:23;44.05;;;20.37;;
20229;SDS011;12195;55.790;37.572;2024-03-02T01:42:59;40.00;;;20.65;;
20229;SDS011;12195;55.790;37.572;2024-03-02T01:45:33;40.83;;;20.00;;
20229;SDS011;12195;55.790;37.572;2024-03-02T01:48:07;45.33;;;19.02;;
20229;SDS011;12195;55.790;37.572;2024-03-02T01:50:40;35.48;;;18.87;;
20229;SDS011;12195;55.790;37.572;2024-03-02T01:53:12;42.60;;;20.20;;
20229;SDS011;12195;55.790;37.572;2024-03-02T01:55:45;45.50;;;19.75;;
20229;SDS011;12195;55.790;37.572;2024-03-02T01:58:17;45.70;;;19.62;;
20229;SDS011;12195;55.790;37.572;2024-03-02T02:00:50;37.70;;;19.00;;
20229;SDS011;12195;55.790;37.572;2024-03-02T02:03:22;42.20;;;20.17;;
20229;SDS011;12195;55.790;37.572;2024-03-02T02:05:55;42.30;;;20.57;;
20229;SDS011;12195;55.790;37.572;2024-03-02T02:08:28;37.45;;;19.23;;
20229;SDS011;12195;55.790;37.572;2024-03-02T02:11:00;45.23;;;19.42;;
20229;SDS011;12195;55.790;37.572;2024-03-02T02:13:33;40.48;;;19.37;;
20229;SDS011;12195;55.790;37.572;2024-03-02T02:16:06;37.78;;;18.67;;
20229;SDS011;12195;55.790;37.572;2024-03-02T02:18:39;41.70;;;20.30;;
20229;SDS011;12195;55.790;37.572;2024-03-02T02:21:12;39.75;;;19.65;;
20229;SDS011;12195;55.790;37.572;2024-03-02T02:23:46;38.27;;;20.47;;
20229;SDS011;12195;55.790;37.572;2024-03-02T02:26:19;44.40;;;19.62;;
20229;SDS011;12195;55.790;37.572;2024-03-02T02:28:51;49.13;;;21.30;;
20229;SDS011;12195;55.790;37.572;2024-03-02T02:31:24;51.33;;;21.93;;
20229;SDS011;12195;55.790;37.572;2024-03-02T02:33:56;39.27;;;20.72;;
20229;SDS011;12195;55.790;37.572;2024-03-02T02:36:29;44.18;;;21.40;;
20229;SDS011;12195;55.790;37.572;2024-03-02T02:39:04;45.08;;;19.50;;
20229;SDS011;12195;55.790;37.572;2024-03-02T02:41:37;46.28;;;20.32;;
20229;SDS011;12195;55.790;37.572;2024-03-02T02:44:10;41.08;;;20.57;;
20229;SDS011;12195;55.790;37.572;2024-03-02T02:46:43;42.23;;;20.48;;
20229;SDS011;12195;55.790;37.572;2024-03-02T02:49:15;47.30;;;19.50;;
20229;SDS011;12195;55.790;37.572;2024-03-02T02:51:47;44.20;;;21.30;;
20229;SDS011;12195;55.790;37.572;2024-03-02T02:54:25;42.65;;;19.57;;
20229;SDS011;12195;55.790;37.572;2024-03-02T02:56:57;47.08;;;20.52;;
20229;SDS011;12195;55.790;37.572;2024-03-02T02:59:30;41.45;;;20.48;;
20229;SDS011;12195;55.790;37.572;2024-03-02T03:02:02;41.02;;;20.43;;
20229;SDS011;12195;55.790;37.572;2024-03-02T03:04:35;38.75;;;20.43;;
20229;SDS011;12195;55.790;37.572;2024-03-02T03:07:08;39.25;;;20.23;;
20229;SDS011;12195;55.790;37.572;2024-03-02T03:09:40;41.02;;;20.68;;
20229;SDS011;12195;55.790;37.572;2024-03-02T03:12:13;48.15;;;21.07;;
20229;SDS011;12195;55.790;37.572;2024-03-02T03:14:46;43.55;;;21.05;;
20229;SDS011;12195;55.790;37.572;2024-03-02T03:17:19;39.65;;;20.95;;
20229;SDS011;12195;55.790;37.572;2024-03-02T03:19:52;39.60;;;20.93;;
20229;SDS011;12195;55.790;37.572;2024-03-02T03:22:26;41.13;;;21.27;;
20229;SDS011;12195;55.790;37.572;2024-03-02T03:24:58;41.30;;;20.65;;
20229;SDS011;12195;55.790;37.572;2024-03-02T03:27:32;41.05;;;19.98;;
20229;SDS011;12195;55.790;37.572;2024-03-02T03:30:04;46.25;;;21.65;;
20229;SDS011;12195;55.790;37.572;2024-03-02T03:32:37;37.60;;;20.55;;
20229;SDS011;12195;55.790;37.572;2024-03-02T03:35:10;44.70;;;21.93;;
20229;SDS011;12195;55.790;37.572;2024-03-02T03:37:43;41.18;;;21.30;;
20229;SDS011;12195;55.790;37.572;2024-03-02T03:40:16;40.03;;;21.00;;
20229;SDS011;12195;55.790;37.572;2024-03-02T03:42:49;39.95;;;20.82;;
20229;SDS011;12195;55.790;37.572;2024-03-02T03:45:22;39.33;;;21.30;;
20229;SDS011;12195;55.790;37.572;2024-03-02T03:47:56;43.48;;;22.42;;
20229;SDS011;12195;55.790;37.572;2024-03-02T03:50:28;38.20;;;21.00;;
20229;SDS011;12195;55.790;37.572;2024-03-02T03:53:02;43.68;;;22.75;;
20229;SDS011;12195;55.790;37.572;2024-03-02T03:55:34;42.95;;;21.50;;
20229;SDS011;12195;55.790;37.572;2024-03-02T03:58:07;47.78;;;23.02;;
20229;SDS011;12195;55.790;37.572;2024-03-02T04:00:40;41.20;;;21.95;;
20229;SDS011;12195;55.790;37.572;2024-03-02T04:03:13;50.30;;;22.22;;
20229;SDS011;12195;55.790;37.572;2024-03-02T04:05:46;43.00;;;21.40;;
20229;SDS011;12195;55.790;37.572;2024-03-02T04:08:19;42.05;;;22.62;;
20229;SDS011;12195;55.790;37.572;2024-03-02T04:10:51;44.42;;;22.50;;
20229;SDS011;12195;55.790;37.572;2024-03-02T04:13:24;44.08;;;22.17;;
20229;SDS011;12195;55.790;37.572;2024-03-02T04:15:57;47.60;;;22.50;;
20229;SDS011;12195;55.790;37.572;2024-03-02T04:18:30;49.65;;;23.42;;
20229;SDS011;12195;55.790;37.572;2024-03-02T04:21:05;42.85;;;21.82;;
20229;SDS011;12195;55.790;37.572;2024-03-02T04:23:38;46.40;;;23.77;;
20229;SDS011;12195;55.790;37.572;2024-03-02T04:26:11;44.15;;;24.15;;
20229;SDS011;12195;55.790;37.572;2024-03-02T04:28:45;43.02;;;22.00;;
20229;SDS011;12195;55.790;37.572;2024-03-02T04:31:18;44.00;;;22.15;;
20229;SDS011;12195;55.790;37.572;2024-03-02T04:33:50;43.92;;;23.90;;
20229;SDS011;12195;55.790;37.572;2024-03-02T04:36:24;42.10;;;23.57;;
20229;SDS011;12195;55.790;37.572;2024-03-02T04:38:57;52.67;;;24.60;;
20229;SDS011;12195;55.790;37.572;2024-03-02T04:41:29;43.58;;;23.15;;
20229;SDS011;12195;55.790;37.572;2024-03-02T04:44:02;44.90;;;23.52;;
20229;SDS011;12195;55.790;37.572;2024-03-02T04:46:34;51.77;;;23.83;;
20229;SDS011;12195;55.790;37.572;2024-03-02T04:49:07;49.13;;;24.50;;
20229;SDS011;12195;55.790;37.572;2024-03-02T04:51:40;49.25;;;24.23;;
20229;SDS011;12195;55.790;37.572;2024-03-02T04:54:13;46.58;;;24.57;;
20229;SDS011;12195;55.790;37.572;2024-03-02T04:56:46;51.15;;;25.10;;
20229;SDS011;12195;55.790;37.572;2024-03-02T04:59:21;46.75;;;24.85;;
20229;SDS011;12195;55.790;37.572;2024-03-02T05:01:54;51.25;;;27.95;;
20229;SDS011;12195;55.790;37.572;2024-03-02T05:04:31;45.65;;;26.65;;
20229;SDS011;12195;55.790;37.572;2024-03-02T05:07:05;56.23;;;27.00;;
20229;SDS011;12195;55.790;37.572;2024-03-02T05:09:38;49.38;;;28.60;;
20229;SDS011;12195;55.790;37.572;2024-03-02T05:12:12;55.95;;;29.18;;
20229;SDS011;12195;55.790;37.572;2024-03-02T05:14:46;58.55;;;29.87;;
20229;SDS011;12195;55.790;37.572;2024-03-02T05:17:19;55.12;;;30.77;;
20229;SDS011;12195;55.790;37.572;2024-03-02T05:19:52;61.45;;;33.42;;
20229;SDS011;12195;55.790;37.572;2024-03-02T05:22:25;55.35;;;31.12;;
20229;SDS011;12195;55.790;37.572;2024-03-02T05:24:57;53.20;;;31.02;;
20229;SDS011;12195;55.790;37.572;2024-03-02T05:30:05;57.58;;;31.65;;
20229;SDS011;12195;55.790;37.572;2024-03-02T05:32:39;62.67;;;32.88;;
20229;SDS011;12195;55.790;37.572;2024-03-02T05:35:12;62.33;;;33.95;;
20229;SDS011;12195;55.790;37.572;2024-03-02T05:40:17;64.22;;;35.13;;
20229;SDS011;12195;55.790;37.572;2024-03-02T05:42:52;63.30;;;34.98;;
20229;SDS011;12195;55.790;37.572;2024-03-02T05:45:31;67.20;;;37.10;;
20229;SDS011;12195;55.790;37.572;2024-03-02T05:48:04;65.52;;;35.52;;
20229;SDS011;12195;55.790;37.572;2024-03-02T05:50:40;61.53;;;34.83;;
20229;SDS011;12195;55.790;37.572;2024-03-02T05:53:13;68.00;;;36.68;;
20229;SDS011;12195;55.790;37.572;2024-03-02T05:55:46;57.15;;;34.30;;
20229;SDS011;12195;55.790;37.572;2024-03-02T06:01:00;65.92;;;36.15;;
20229;SDS011;12195;55.790;37.572;2024-03-02T06:03:33;73.65;;;36.13;;
20229;SDS011;12195;55.790;37.572;2024-03-02T06:06:06;67.10;;;36.50;;
20229;SDS011;12195;55.790;37.572;2024-03-02T06:08:40;64.53;;;34.37;;
20229;SDS011;12195;55.790;37.572;2024-03-02T06:11:12;59.88;;;31.77;;
20229;SDS011;12195;55.790;37.572;2024-03-02T06:13:46;60.65;;;32.28;;
20229;SDS011;12195;55.790;37.572;2024-03-02T06:16:20;68.60;;;33.02;;
20229;SDS011;12195;55.790;37.572;2024-03-02T06:18:52;60.10;;;33.28;;
20229;SDS011;12195;55.790;37.572;2024-03-02T06:21:25;56.98;;;31.75;;
20229;SDS011;12195;55.790;37.572;2024-03-02T06:23:59;62.38;;;31.70;;
20229;SDS011;12195;55.790;37.572;2024-03-02T06:26:31;61.02;;;31.27;;
20229;SDS011;12195;55.790;37.572;2024-03-02T06:29:04;60.20;;;31.12;;
20229;SDS011;12195;55.790;37.572;2024-03-02T06:31:38;58.30;;;31.68;;
20229;SDS011;12195;55.790;37.572;2024-03-02T06:34:11;55.00;;;29.20;;
20229;SDS011;12195;55.790;37.572;2024-03-02T06:36:43;57.38;;;30.25;;
20229;SDS011;12195;55.790;37.572;2024-03-02T06:39:16;64.35;;;29.65;;
20229;SDS011;12195;55.790;37.572;2024-03-02T06:41:49;68.17;;;31.82;;
20229;SDS011;12195;55.790;37.572;2024-03-02T06:44:22;57.97;;;29.50;;
20229;SDS011;12195;55.790;37.572;2024-03-02T06:46:55;60.63;;;29.10;;
20229;SDS011;12195;55.790;37.572;2024-03-02T06:49:28;58.20;;;29.27;;
20229;SDS011;12195;55.790;37.572;2024-03-02T06:52:02;57.88;;;29.05;;
20229;SDS011;12195;55.790;37.572;2024-03-02T06:54:35;55.63;;;27.85;;
20229;SDS011;12195;55.790;37.572;2024-03-02T06:57:08;50.80;;;26.95;;
20229;SDS011;12195;55.790;37.572;2024-03-02T06:59:41;55.43;;;29.35;;
20229;SDS011;12195;55.790;37.572;2024-03-02T07:02:13;49.63;;;26.93;;
20229;SDS011;12195;55.790;37.572;2024-03-02T07:04:46;48.78;;;27.10;;
20229;SDS011;12195;55.790;37.572;2024-03-02T07:07:19;57.13;;;27.45;;
20229;SDS011;12195;55.790;37.572;2024-03-02T07:09:52;60.75;;;29.55;;
20229;SDS011;12195;55.790;37.572;2024-03-02T07:12:24;56.65;;;27.50;;
20229;SDS011;12195;55.790;37.572;2024-03-02T07:14:57;52.30;;;27.22;;
20229;SDS011;12195;55.790;37.572;2024-03-02T07:17:37;49.67;;;26.12;;
20229;SDS011;12195;55.790;37.572;2024-03-02T07:20:10;51.40;;;26.77;;
20229;SDS011;12195;55.790;37.572;2024-03-02T07:22:43;48.63;;;25.40;;
20229;SDS011;12195;55.790;37.572;2024-03-02T07:25:16;51.53;;;26.20;;
20229;SDS011;12195;55.790;37.572;2024-03-02T07:30:23;51.65;;;24.98;;
20229;SDS011;12195;55.790;37.572;2024-03-02T07:32:59;50.48;;;25.60;;
20229;SDS011;12195;55.790;37.572;2024-03-02T07:35:50;51.42;;;26.37;;
20229;SDS011;12195;55.790;37.572;2024-03-02T07:38:23;57.43;;;26.60;;
20229;SDS011;12195;55.790;37.572;2024-03-02T07:40:56;49.00;;;26.85;;
20229;SDS011;12195;55.790;37.572;2024-03-02T07:43:31;53.28;;;27.37;;
20229;SDS011;12195;55.790;37.572;2024-03-02T07:46:04;51.40;;;26.68;;
20229;SDS011;12195;55.790;37.572;2024-03-02T07:48:38;50.05;;;25.55;;
20229;SDS011;12195;55.790;37.572;2024-03-02T07:54:03;51.25;;;26.25;;
20229;SDS011;12195;55.790;37.572;2024-03-02T07:56:37;51.57;;;25.47;;
20229;SDS011;12195;55.790;37.572;2024-03-02T07:59:10;46.45;;;25.55;;
20229;SDS011;12195;55.790;37.572;2024-03-02T08:01:44;52.30;;;26.95;;
20229;SDS011;12195;55.790;37.572;2024-03-02T08:04:17;56.07;;;27.97;;
20229;SDS011;12195;55.790;37.572;2024-03-02T08:06:50;46.00;;;24.18;;
20229;SDS011;12195;55.790;37.572;2024-03-02T08:09:22;46.92;;;25.00;;
20229;SDS011;12195;55.790;37.572;2024-03-02T08:11:57;43.10;;;23.45;;
20229;SDS011;12195;55.790;37.572;2024-03-02T08:14:30;43.50;;;24.30;;
20229;SDS011;12195;55.790;37.572;2024-03-02T08:17:02;40.80;;;22.32;;
20229;SDS011;12195;55.790;37.572;2024-03-02T08:19:36;43.75;;;22.30;;
20229;SDS011;12195;55.790;37.572;2024-03-02T08:24:43;42.60;;;21.65;;
20229;SDS011;12195;55.790;37.572;2024-03-02T08:27:17;46.50;;;22.20;;
20229;SDS011;12195;55.790;37.572;2024-03-02T08:29:51;45.00;;;21.75;;
20229;SDS011;12195;55.790;37.572;2024-03-02T08:32:26;44.35;;;21.87;;
20229;SDS011;12195;55.790;37.572;2024-03-02T08:35:00;35.63;;;20.10;;
20229;SDS011;12195;55.790;37.572;2024-03-02T08:37:34;35.92;;;21.07;;
20229;SDS011;12195;55.790;37.572;2024-03-02T08:40:08;37.80;;;21.15;;
20229;SDS011;12195;55.790;37.572;2024-03-02T08:42:45;46.77;;;22.87;;
20229;SDS011;12195;55.790;37.572;2024-03-02T08:45:18;39.27;;;22.13;;
20229;SDS011;12195;55.790;37.572;2024-03-02T08:47:51;40.25;;;22.62;;
20229;SDS011;12195;55.790;37.572;2024-03-02T08:50:24;42.50;;;23.15;;
20229;SDS011;12195;55.790;37.572;2024-03-02T08:52:57;35.28;;;22.15;;
20229;SDS011;12195;55.790;37.572;2024-03-02T08:55:31;44.53;;;25.47;;
20229;SDS011;12195;55.790;37.572;2024-03-02T08:58:05;44.80;;;25.70;;
20229;SDS011;12195;55.790;37.572;2024-03-02T09:00:39;44.77;;;22.65;;
20229;SDS011;12195;55.790;37.572;2024-03-02T09:03:13;41.30;;;23.25;;
20229;SDS011;12195;55.790;37.572;2024-03-02T09:05:46;36.25;;;18.17;;
20229;SDS011;12195;55.790;37.572;2024-03-02T09:08:19;44.23;;;24.43;;
20229;SDS011;12195;55.790;37.572;2024-03-02T09:10:54;46.28;;;24.65;;
20229;SDS011;12195;55.790;37.572;2024-03-02T09:13:28;46.37;;;24.07;;
20229;SDS011;12195;55.790;37.572;2024-03-02T09:16:01;42.55;;;25.40;;
20229;SDS011;12195;55.790;37.572;2024-03-02T09:18:34;42.53;;;25.15;;
20229;SDS011;12195;55.790;37.572;2024-03-02T09:21:07;42.98;;;25.75;;
20229;SDS011;12195;55.790;37.572;2024-03-02T09:23:41;42.95;;;25.75;;
20229;SDS011;12195;55.790;37.572;2024-03-02T09:26:16;43.58;;;24.40;;
20229;SDS011;12195;55.790;37.572;2024-03-02T09:28:51;57.15;;;26.55;;
20229;SDS011;12195;55.790;37.572;2024-03-02T09:31:23;46.18;;;25.25;;
20229;SDS011;12195;55.790;37.572;2024-03-02T09:33:57;45.75;;;24.43;;
20229;SDS011;12195;55.790;37.572;2024-03-02T09:36:31;47.83;;;25.40;;
20229;SDS011;12195;55.790;37.572;2024-03-02T09:39:05;43.00;;;23.42;;
20229;SDS011;12195;55.790;37.572;2024-03-02T09:41:41;46.25;;;24.40;;
20229;SDS011;12195;55.790;37.572;2024-03-02T09:44:14;44.67;;;23.43;;
20229;SDS011;12195;55.790;37.572;2024-03-02T09:46:50;42.15;;;24.07;;
20229;SDS011;12195;55.790;37.572;2024-03-02T09:49:23;44.90;;;23.52;;
20229;SDS011;12195;55.790;37.572;2024-03-02T09:51:57;29.55;;;18.17;;
20229;SDS011;12195;55.790;37.572;2024-03-02T09:54:30;40.63;;;22.77;;
20229;SDS011;12195;55.790;37.572;2024-03-02T09:57:04;41.80;;;22.32;;
20229;SDS011;12195;55.790;37.572;2024-03-02T09:59:38;44.53;;;22.62;;
20229;SDS011;12195;55.790;37.572;2024-03-02T10:02:11;42.62;;;21.37;;
20229;SDS011;12195;55.790;37.572;2024-03-02T10:04:45;41.50;;;21.52;;
20229;SDS011;12195;55.790;37.572;2024-03-02T10:07:20;39.55;;;21.00;;
20229;SDS011;12195;55.790;37.572;2024-03-02T10:09:54;38.95;;;19.62;;
20229;SDS011;12195;55.790;37.572;2024-03-02T10:12:28;33.42;;;18.95;;
20229;SDS011;12195;55.790;37.572;2024-03-02T10:17:40;36.50;;;19.23;;
20229;SDS011;12195;55.790;37.572;2024-03-02T10:20:24;37.67;;;18.97;;
20229;SDS011;12195;55.790;37.572;2024-03-02T10:23:10;33.73;;;20.35;;
20229;SDS011;12195;55.790;37.572;2024-03-02T10:28:18;38.70;;;20.08;;
20229;SDS011;12195;55.790;37.572;2024-03-02T10:30:51;36.17;;;18.92;;
20229;SDS011;12195;55.790;37.572;2024-03-02T10:33:26;33.58;;;19.50;;
20229;SDS011;12195;55.790;37.572;2024-03-02T10:36:00;32.83;;;19.45;;
20229;SDS011;12195;55.790;37.572;2024-03-02T10:38:35;38.67;;;18.62;;
20229;SDS011;12195;55.790;37.572;2024-03-02T10:41:10;32.95;;;17.85;;
20229;SDS011;12195;55.790;37.572;2024-03-02T10:43:45;34.13;;;18.12;;
20229;SDS011;12195;55.790;37.572;2024-03-02T10:46:20;34.63;;;19.02;;
20229;SDS011;12195;55.790;37.572;2024-03-02T10:48:56;33.73;;;19.48;;
20229;SDS011;12195;55.790;37.572;2024-03-02T10:51:32;58.85;;;23.00;;
20229;SDS011;12195;55.790;37.572;2024-03-02T10:54:08;39.20;;;19.77;;
20229;SDS011;12195;55.790;37.572;2024-03-02T10:56:41;37.60;;;18.05;;
20229;SDS011;12195;55.790;37.572;2024-03-02T10:59:24;32.42;;;17.73;;
20229;SDS011;12195;55.790;37.572;2024-03-02T11:02:08;35.75;;;17.62;;
20229;SDS011;12195;55.790;37.572;2024-03-02T11:04:45;39.63;;;17.95;;
20229;SDS011;12195;55.790;37.572;2024-03-02T11:07:21;31.50;;;16.95;;
20229;SDS011;12195;55.790;37.572;2024-03-02T11:10:02;36.08;;;16.97;;
20229;SDS011;12195;55.790;37.572;2024-03-02T11:12:52;36.58;;;18.00;;
20229;SDS011;12195;55.790;37.572;2024-03-02T11:15:24;30.37;;;17.30;;
20229;SDS011;12195;55.790;37.572;2024-03-02T11:17:59;33.65;;;18.35;;
20229;SDS011;12195;55.790;37.572;2024-03-02T11:20:39;32.42;;;17.50;;
20229;SDS011;12195;55.790;37.572;2024-03-02T11:23:10;35.43;;;18.62;;
20229;SDS011;12195;55.790;37.572;2024-03-02T11:25:43;35.52;;;19.45;;
20229;SDS011;12195;55.790;37.572;2024-03-02T11:28:18;36.38;;;18.05;;
20229;SDS011;12195;55.790;37.572;2024-03-02T11:30:54;40.10;;;18.00;;
20229;SDS011;12195;55.790;37.572;2024-03-02T11:33:27;35.75;;;17.62;;
20229;SDS011;12195;55.790;37.572;2024-03-02T11:36:01;34.43;;;17.57;;
20229;SDS011;12195;55.790;37.572;2024-03-02T11:41:08;34.95;;;17.52;;
20229;SDS011;12195;55.790;37.572;2024-03-02T11:43:41;33.53;;;17.02;;
20229;SDS011;12195;55.790;37.572;2024-03-02T11:46:15;33.08;;;18.17;;
20229;SDS011;12195;55.790;37.572;2024-03-02T11:48:51;34.08;;;17.90;;
20229;SDS011;12195;55.790;37.572;2024-03-02T11:51:27;32.42;;;17.37;;
20229;SDS011;12195;55.790;37.572;2024-03-02T11:54:00;33.83;;;17.67;;
20229;SDS011;12195;55.790;37.572;2024-03-02T11:56:35;32.08;;;18.05;;
20229;SDS011;12195;55.790;37.572;2024-03-02T11:59:09;38.80;;;19.00;;
20229;SDS011;12195;55.790;37.572;2024-03-02T12:01:44;36.58;;;18.85;;
20229;SDS011;12195;55.790;37.572;2024-03-02T12:04:19;36.70;;;18.95;;
20229;SDS011;12195;55.790;37.572;2024-03-02T12:06:56;35.63;;;19.10;;
20229;SDS011;12195;55.790;37.572;2024-03-02T12:09:34;30.97;;;16.80;;
20229;SDS011;12195;55.790;37.572;2024-03-02T12:12:08;34.97;;;18.27;;
20229;SDS011;12195;55.790;37.572;2024-03-02T12:14:49;29.63;;;17.85;;
20229;SDS011;12195;55.790;37.572;2024-03-02T12:17:25;33.95;;;18.73;;
20229;SDS011;12195;55.790;37.572;2024-03-02T12:19:59;35.98;;;18.45;;
20229;SDS011;12195;55.790;37.572;2024-03-02T12:22:33;32.15;;;18.00;;
20229;SDS011;12195;55.790;37.572;2024-03-02T12:25:08;38.80;;;18.67;;
20229;SDS011;12195;55.790;37.572;2024-03-02T12:27:42;32.35;;;17.20;;
20229;SDS011;12195;55.790;37.572;2024-03-02T12:30:17;31.40;;;17.85;;
20229;SDS011;12195;55.790;37.572;2024-03-02T12:35:23;33.67;;;18.40;;
20229;SDS011;12195;55.790;37.572;2024-03-02T12:37:58;37.65;;;18.65;;
20229;SDS011;12195;55.790;37.572;2024-03-02T12:40:33;33.53;;;18.30;;
20229;SDS011;12195;55.790;37.572;2024-03-02T12:43:29;30.75;;;18.37;;
20229;SDS011;12195;55.790;37.572;2024-03-02T12:46:03;34.67;;;19.37;;
20229;SDS011;12195;55.790;37.572;2024-03-02T12:48:36;31.73;;;18.95;;
20229;SDS011;12195;55.790;37.572;2024-03-02T12:51:10;37.38;;;18.57;;
20229;SDS011;12195;55.790;37.572;2024-03-02T12:53:52;35.25;;;18.67;;
20229;SDS011;12195;55.790;37.572;2024-03-02T12:56:27;40.63;;;20.62;;
20229;SDS011;12195;55.790;37.572;2024-03-02T12:59:00;35.98;;;19.52;;
20229;SDS011;12195;55.790;37.572;2024-03-02T13:01:34;43.78;;;20.00;;
20229;SDS011;12195;55.790;37.572;2024-03-02T13:04:09;37.42;;;19.23;;
20229;SDS011;12195;55.790;37.572;2024-03-02T13:06:41;44.83;;;19.37;;
20229;SDS011;12195;55.790;37.572;2024-03-02T13:09:15;42.65;;;19.00;;
20229;SDS011;12195;55.790;37.572;2024-03-02T13:11:48;37.58;;;18.10;;
20229;SDS011;12195;55.790;37.572;2024-03-02T13:14:38;29.50;;;16.67;;
20229;SDS011;12195;55.790;37.572;2024-03-02T13:17:12;30.93;;;18.47;;
20229;SDS011;12195;55.790;37.572;2024-03-02T13:19:51;31.40;;;17.55;;
20229;SDS011;12195;55.790;37.572;2024-03-02T13:22:34;46.10;;;18.05;;
20229;SDS011;12195;55.790;37.572;2024-03-02T13:25:07;49.05;;;20.45;;
20229;SDS011;12195;55.790;37.572;2024-03-02T13:27:42;32.73;;;17.92;;
20229;SDS011;12195;55.790;37.572;2024-03-02T13:30:15;34.00;;;16.20;;
20229;SDS011;12195;55.790;37.572;2024-03-02T13:32:49;30.90;;;16.50;;
20229;SDS011;12195;55.790;37.572;2024-03-02T13:35:22;27.73;;;15.98;;
20229;SDS011;12195;55.790;37.572;2024-03-02T13:37:56;28.00;;;16.25;;
20229;SDS011;12195;55.790;37.572;2024-03-02T13:40:30;29.55;;;16.60;;
20229;SDS011;12195;55.790;37.572;2024-03-02T13:43:05;29.95;;;15.93;;
20229;SDS011;12195;55.790;37.572;2024-03-02T13:45:38;32.80;;;16.97;;
20229;SDS011;12195;55.790;37.572;2024-03-02T13:48:11;26.82;;;16.07;;
20229;SDS011;12195;55.790;37.572;2024-03-02T13:50:45;29.30;;;15.10;;
20229;SDS011;12195;55.790;37.572;2024-03-02T13:53:18;35.08;;;15.75;;
20229;SDS011;12195;55.790;37.572;2024-03-02T13:55:52;30.32;;;15.83;;
20229;SDS011;12195;55.790;37.572;2024-03-02T13:58:25;29.27;;;15.43;;
20229;SDS011;12195;55.790;37.572;2024-03-02T14:00:58;27.33;;;14.83;;
20229;SDS011;12195;55.790;37.572;2024-03-02T14:03:32;29.92;;;16.12;;
20229;SDS011;12195;55.790;37.572;2024-03-02T14:06:05;27.32;;;15.50;;
20229;SDS011;12195;55.790;37.572;2024-03-02T14:08:39;31.48;;;15.58;;
20229;SDS011;12195;55.790;37.572;2024-03-02T14:11:13;37.45;;;16.55;;
20229;SDS011;12195;55.790;37.572;2024-03-02T14:13:47;29.18;;;15.93;;
20229;SDS011;12195;55.790;37.572;2024-03-02T14:16:22;32.70;;;16.07;;
20229;SDS011;12195;55.790;37.572;2024-03-02T14:18:55;36.50;;;16.23;;
20229;SDS011;12195;55.790;37.572;2024-03-02T14:24:03;29.90;;;15.93;;
20229;SDS011;12195;55.790;37.572;2024-03-02T14:26:39;32.20;;;15.43;;
20229;SDS011;12195;55.790;37.572;2024-03-02T14:29:12;29.20;;;15.68;;
20229;SDS011;12195;55.790;37.572;2024-03-02T14:31:46;38.35;;;16.73;;
20229;SDS011;12195;55.790;37.572;2024-03-02T14:34:20;29.42;;;15.08;;
20229;SDS011;12195;55.790;37.572;2024-03-02T14:36:55;34.35;;;16.60;;
20229;SDS011;12195;55.790;37.572;2024-03-02T14:39:29;29.42;;;15.30;;
20229;SDS011;12195;55.790;37.572;2024-03-02T14:42:04;29.00;;;14.98;;
20229;SDS011;12195;55.790;37.572;2024-03-02T14:44:37;36.88;;;18.73;;
20229;SDS011;12195;55.790;37.572;2024-03-02T14:49:43;25.37;;;15.72;;
20229;SDS011;12195;55.790;37.572;2024-03-02T14:52:17;38.05;;;15.83;;
20229;SDS011;12195;55.790;37.572;2024-03-02T14:54:50;27.42;;;14.78;;
20229;SDS011;12195;55.790;37.572;2024-03-02T14:57:23;24.80;;;15.80;;
20229;SDS011;12195;55.790;37.572;2024-03-02T14:59:55;31.52;;;15.65;;
20229;SDS011;12195;55.790;37.572;2024-03-02T15:02:30;34.75;;;16.12;;
20229;SDS011;12195;55.790;37.572;2024-03-02T15:05:04;29.67;;;15.20;;
20229;SDS011;12195;55.790;37.572;2024-03-02T15:07:38;35.73;;;17.73;;
20229;SDS011;12195;55.790;37.572;2024-03-02T15:10:11;32.05;;;16.12;;
20229;SDS011;12195;55.790;37.572;2024-03-02T15:12:46;37.55;;;16.25;;
20229;SDS011;12195;55.790;37.572;2024-03-02T15:15:19;38.10;;;14.93;;
20229;SDS011;12195;55.790;37.572;2024-03-02T15:17:53;31.25;;;16.12;;
20229;SDS011;12195;55.790;37.572;2024-03-02T15:20:26;26.75;;;14.70;;